Main page
METAR-TAF:

METAR-TAF

Airports :

Jerez Airport

Jerez de la Frontera, Spain

latitude: 36-45N, longitude: 006-04W, elevation: 27 m

Current weather observation

The report was made 21 minutes ago, at 05:30 UTC
Calm wind
Temperature 16°C
Humidity 82%
Pressure 1015 hPa
Visibility 10 km or more
no clouds below 1500 m and no cumulonimbus

METAR: LEJR 250530Z 00000KT CAVOK 16/13 Q1015

Time: 07:51 (05:51 UTC)

Forecast

The report was made 51 minutes ago, at 05:00 UTC
Forecast valid from 25 at 06 UTC to 26 at 06 UTC
Wind 4 kt from the East
Visibility 10 km or more
no clouds below 1500 m and no cumulonimbus
Becoming
from 25 at 12 UTC to 25 at 14 UTC
Wind 14 kt from the South/Southeast
Probability 40% :
Temporary
from 25 at 14 UTC to 25 at 18 UTC
Wind 15 kt from the South/Southeast with gusts up to 25 kt
Becoming
from 25 at 19 UTC to 25 at 22 UTC
Wind 2 kt from variable directions

TAF: LEJR 250500Z 2506/2606 09004KT CAVOK TX35/2514Z TN17/2506Z BECMG 2512/2514 16014KT PROB40 TEMPO 2514/2518 16015G25KT BECMG 2519/2522 VRB02KT

Weather observations and forecasts of more than 4000 airports (METAR and TAF reports).

The available stations are represented by yellow and red dots on the map.

Hover mouse over dot to see the name of the station.

Then click to see weather observations and forecasts.

To change the map : click on the green buttons with a black cross to zoom in, on the green button with a dash to zoom out, or on the green arrows for adjacent maps.


METAR-TAF: